Time;durP1;ratioP1;P1;durP2;ratioP2;P2;SDS_P1;SDS_P2;PMS_P1;PMS_P2;Temp;Humidity;BMP_temperature;BMP_pressure;BME280_temperature;BME280_humidity;BME280_pressure;Samples;Min_cycle;Max_cycle;Signal;HPM_P1;HPM_P2
2022/12/07 00:00:22;;;;;;;23.83;11.30;;;6.50;99.90;;;;;;5028486;28;20692;-61
2022/12/07 00:02:49;;;;;;;22.37;11.23;;;6.50;99.90;;;;;;5027270;28;20321;-61
2022/12/07 00:05:16;;;;;;;24.50;12.07;;;6.50;99.90;;;;;;5029412;28;20178;-61
2022/12/07 00:07:44;;;;;;;23.37;12.37;;;6.40;99.90;;;;;;5027328;28;20288;-61
2022/12/07 00:10:11;;;;;;;19.73;10.53;;;6.40;99.90;;;;;;5029154;28;20218;-61
2022/12/07 00:12:38;;;;;;;22.83;12.40;;;6.40;99.90;;;;;;5027954;28;20199;-61
2022/12/07 00:15:07;;;;;;;18.07;9.93;;;6.40;99.90;;;;;;5028944;28;20260;-61
2022/12/07 00:17:34;;;;;;;16.83;9.27;;;6.40;99.90;;;;;;5028594;28;20201;-62
2022/12/07 00:20:01;;;;;;;15.87;8.83;;;6.40;99.90;;;;;;5029287;28;20193;-62
2022/12/07 00:22:28;;;;;;;14.33;8.07;;;6.40;99.90;;;;;;5027343;28;20270;-62
2022/12/07 00:24:57;;;;;;;12.10;7.30;;;6.40;99.90;;;;;;5023961;28;20210;-61
2022/12/07 00:27:24;;;;;;;12.13;6.27;;;6.40;99.90;;;;;;5027092;28;20210;-62
2022/12/07 00:29:51;;;;;;;9.80;6.03;;;6.50;99.90;;;;;;5008115;28;20199;-61
2022/12/07 00:32:19;;;;;;;10.10;5.97;;;6.50;99.90;;;;;;5008042;28;20194;-61
2022/12/07 00:34:45;;;;;;;8.77;5.50;;;6.50;99.90;;;;;;5007066;28;20273;-60
2022/12/07 00:37:13;;;;;;;9.73;5.67;;;6.50;99.90;;;;;;5027808;28;20226;-60
2022/12/07 00:39:40;;;;;;;8.23;5.00;;;6.50;99.90;;;;;;5024133;28;20205;-61
2022/12/07 00:42:08;;;;;;;8.93;5.37;;;6.50;99.90;;;;;;5027075;28;20604;-61
2022/12/07 00:44:35;;;;;;;6.80;4.80;;;6.50;99.90;;;;;;5028603;28;20271;-62
2022/12/07 00:47:02;;;;;;;8.93;5.37;;;6.50;99.90;;;;;;5026740;28;20206;-61
2022/12/07 00:49:29;;;;;;;6.07;4.77;;;6.60;99.90;;;;;;5024591;28;20213;-61
2022/12/07 00:51:57;;;;;;;8.83;5.57;;;6.60;99.90;;;;;;5029765;28;20246;-61
2022/12/07 00:54:24;;;;;;;8.10;4.93;;;6.60;99.90;;;;;;5025115;28;20281;-61
2022/12/07 00:56:51;;;;;;;8.47;5.60;;;6.60;99.90;;;;;;5028211;28;20224;-61
2022/12/07 00:59:19;;;;;;;9.43;5.23;;;6.60;99.90;;;;;;5024795;28;20202;-61
2022/12/07 01:01:46;;;;;;;6.43;4.57;;;6.60;99.90;;;;;;5027990;28;20272;-61
2022/12/07 01:04:13;;;;;;;12.50;6.40;;;6.70;99.90;;;;;;5024696;28;20234;-61
2022/12/07 01:06:40;;;;;;;13.10;7.00;;;6.60;99.90;;;;;;5026940;28;20194;-61
2022/12/07 01:09:07;;;;;;;12.63;6.97;;;6.60;99.90;;;;;;5025230;28;20230;-61
2022/12/07 01:11:35;;;;;;;9.33;5.87;;;6.60;99.90;;;;;;5010199;28;20234;-61
2022/12/07 01:14:02;;;;;;;8.00;5.40;;;6.60;99.90;;;;;;5009502;28;20217;-61
2022/12/07 01:16:32;;;;;;;10.80;6.17;;;6.70;99.90;;;;;;5028747;28;20317;-61
2022/12/07 01:19:00;;;;;;;8.43;5.03;;;6.70;99.90;;;;;;5009082;28;20209;-61
2022/12/07 01:21:29;;;;;;;7.70;4.80;;;6.70;99.90;;;;;;5027579;28;20191;-61
2022/12/07 01:23:58;;;;;;;7.83;4.97;;;6.70;99.90;;;;;;5024744;28;20186;-61
2022/12/07 01:26:27;;;;;;;8.17;4.90;;;6.70;99.90;;;;;;5026766;28;20277;-61
2022/12/07 01:28:55;;;;;;;6.83;4.60;;;6.70;99.90;;;;;;5024333;28;20655;-61
2022/12/07 01:31:24;;;;;;;6.23;4.20;;;6.70;99.90;;;;;;5009305;28;20281;-61
2022/12/07 01:33:54;;;;;;;7.30;4.53;;;6.70;99.90;;;;;;5027351;28;20189;-61
2022/12/07 01:36:24;;;;;;;8.07;4.60;;;6.70;99.90;;;;;;5028151;28;20276;-62
2022/12/07 01:38:56;;;;;;;8.20;5.00;;;6.70;99.90;;;;;;5023445;28;20202;-61
2022/12/07 01:41:25;;;;;;;6.20;4.57;;;6.80;99.90;;;;;;5026214;28;20240;-60
2022/12/07 01:44:22;;;;;;;6.83;4.07;;;6.70;99.90;;;;;;5026474;28;20199;-61
2022/12/07 01:46:51;;;;;;;6.53;4.30;;;6.70;99.90;;;;;;5027154;28;20541;-60
2022/12/07 01:49:26;;;;;;;5.80;4.20;;;6.70;99.90;;;;;;5006744;28;20205;-61
2022/12/07 01:51:59;;;;;;;7.13;4.57;;;6.70;99.90;;;;;;5034618;28;20658;-61
2022/12/07 01:54:26;;;;;;;6.63;4.73;;;6.70;99.90;;;;;;5027336;28;20198;-61
2022/12/07 01:56:57;;;;;;;6.43;4.20;;;6.70;99.90;;;;;;5030409;28;20255;-60
2022/12/07 01:59:26;;;;;;;7.80;5.03;;;6.70;99.90;;;;;;5012455;28;20201;-61
2022/12/07 02:01:55;;;;;;;7.73;4.50;;;6.70;99.90;;;;;;5030990;28;20695;-60
2022/12/07 02:04:24;;;;;;;8.63;5.00;;;6.70;99.90;;;;;;5032089;28;20310;-61
2022/12/07 02:06:52;;;;;;;7.37;4.70;;;6.70;99.90;;;;;;5034341;28;20259;-61
2022/12/07 02:09:19;;;;;;;8.33;5.10;;;6.80;99.90;;;;;;5027303;28;20251;-61
2022/12/07 02:11:46;;;;;;;5.73;4.07;;;6.70;99.90;;;;;;5031456;28;20202;-61
2022/12/07 02:14:13;;;;;;;6.30;4.10;;;6.80;99.90;;;;;;5011964;28;20197;-61
2022/12/07 02:16:52;;;;;;;8.07;4.50;;;6.80;99.90;;;;;;5027896;28;20267;-61
2022/12/07 02:19:53;;;;;;;8.37;4.60;;;6.80;99.90;;;;;;5029859;28;20189;-61
2022/12/07 02:22:48;;;;;;;7.17;4.30;;;6.80;99.90;;;;;;5029072;28;20198;-61
2022/12/07 02:25:28;;;;;;;7.73;4.73;;;6.80;99.90;;;;;;5017990;28;20202;-61
2022/12/07 02:28:04;;;;;;;8.07;4.60;;;6.80;99.90;;;;;;5028009;28;20202;-61
2022/12/07 02:30:36;;;;;;;6.77;4.57;;;6.80;99.90;;;;;;5028822;28;20697;-61
2022/12/07 02:33:08;;;;;;;7.93;4.93;;;6.80;99.90;;;;;;5029134;28;20199;-61
2022/12/07 02:35:41;;;;;;;7.90;4.50;;;6.80;99.90;;;;;;5027347;28;20293;-61
2022/12/07 02:38:15;;;;;;;7.30;4.20;;;6.70;99.90;;;;;;5026883;28;20241;-61
2022/12/07 02:40:47;;;;;;;8.83;4.27;;;6.80;99.90;;;;;;5010734;28;20202;-61
2022/12/07 02:43:19;;;;;;;8.70;4.90;;;6.80;99.90;;;;;;5029733;28;20224;-61
2022/12/07 02:45:48;;;;;;;6.90;4.30;;;6.80;99.90;;;;;;5026112;28;20601;-61
2022/12/07 02:48:18;;;;;;;6.23;4.50;;;6.80;99.90;;;;;;5029440;28;20203;-61
2022/12/07 02:50:46;;;;;;;5.40;3.93;;;6.80;99.90;;;;;;5010133;28;20205;-61
2022/12/07 02:53:32;;;;;;;11.23;6.57;;;6.80;99.90;;;;;;5026423;28;20199;-61
2022/12/07 02:56:02;;;;;;;11.37;6.37;;;6.70;99.90;;;;;;5030130;28;20433;-62
2022/12/07 02:58:40;;;;;;;7.17;4.70;;;6.70;99.90;;;;;;5027337;28;20594;-62
2022/12/07 03:01:18;;;;;;;7.97;4.97;;;6.70;99.90;;;;;;5026663;28;20195;-61
2022/12/07 03:03:53;;;;;;;8.93;5.30;;;6.70;99.90;;;;;;5028912;28;20979;-61
2022/12/07 03:06:27;;;;;;;8.20;4.93;;;6.70;99.90;;;;;;5028667;28;20715;-61
2022/12/07 03:08:59;;;;;;;7.93;5.07;;;6.70;99.90;;;;;;5025402;28;20658;-61
2022/12/07 03:11:36;;;;;;;5.63;4.57;;;6.70;99.90;;;;;;5030156;28;20306;-61
2022/12/07 03:14:11;;;;;;;6.33;4.10;;;6.70;99.90;;;;;;5032887;28;20281;-61
2022/12/07 03:16:46;;;;;;;4.97;3.23;;;6.70;99.90;;;;;;5030944;28;20199;-61
2022/12/07 03:19:17;;;;;;;4.90;3.30;;;6.70;99.90;;;;;;5029467;28;20200;-61
2022/12/07 03:21:48;;;;;;;6.80;3.97;;;6.80;99.90;;;;;;5027863;28;20274;-61
2022/12/07 03:24:20;;;;;;;5.70;3.90;;;6.70;99.90;;;;;;5007548;28;20257;-61
2022/12/07 03:26:50;;;;;;;4.33;3.47;;;6.80;99.90;;;;;;5028488;28;20304;-61
2022/12/07 03:29:21;;;;;;;3.80;3.00;;;6.80;99.90;;;;;;5034447;28;20547;-61
2022/12/07 03:31:59;;;;;;;4.73;3.57;;;6.80;99.90;;;;;;5035376;28;20207;-61
2022/12/07 03:34:31;;;;;;;5.93;3.97;;;6.80;99.90;;;;;;5029008;28;20225;-61
2022/12/07 03:37:03;;;;;;;3.93;3.23;;;6.80;99.90;;;;;;5029070;28;20259;-61
2022/12/07 03:39:36;;;;;;;5.13;3.90;;;6.70;99.90;;;;;;5024842;28;20586;-61
2022/12/07 03:42:06;;;;;;;3.70;3.20;;;6.70;99.90;;;;;;5029346;28;20654;-61
2022/12/07 03:44:35;;;;;;;2.73;2.43;;;6.70;99.90;;;;;;5025111;28;20239;-61
2022/12/07 03:47:07;;;;;;;5.10;3.37;;;6.80;99.90;;;;;;5027577;28;20191;-61
2022/12/07 03:49:41;;;;;;;4.57;3.17;;;6.80;99.90;;;;;;5024713;28;20290;-61
2022/12/07 03:52:18;;;;;;;4.80;3.13;;;6.80;99.90;;;;;;5028297;28;20244;-61
2022/12/07 03:54:52;;;;;;;4.83;2.97;;;6.70;99.90;;;;;;5026722;28;20308;-61
2022/12/07 03:57:20;;;;;;;2.50;2.30;;;6.70;99.90;;;;;;5027732;28;20244;-61
2022/12/07 03:59:48;;;;;;;3.43;2.70;;;6.70;99.90;;;;;;5028693;28;20211;-61
2022/12/07 04:02:17;;;;;;;4.43;2.57;;;6.80;99.90;;;;;;5027070;28;20226;-61
2022/12/07 04:04:44;;;;;;;2.83;2.37;;;6.80;99.90;;;;;;5026869;28;20233;-61
2022/12/07 04:07:12;;;;;;;3.87;2.80;;;6.80;99.90;;;;;;5027903;28;20218;-61
2022/12/07 04:09:39;;;;;;;2.50;2.30;;;6.80;99.90;;;;;;5025134;28;20194;-62
2022/12/07 04:12:07;;;;;;;1.90;1.80;;;6.80;99.90;;;;;;5025976;28;20229;-61
2022/12/07 04:14:34;;;;;;;1.83;1.73;;;6.80;99.90;;;;;;5009046;28;20229;-61
2022/12/07 04:17:01;;;;;;;2.23;2.03;;;6.80;99.90;;;;;;5027710;28;20374;-61
2022/12/07 04:19:31;;;;;;;2.50;2.30;;;6.80;99.90;;;;;;5026345;28;20294;-62
2022/12/07 04:22:00;;;;;;;1.83;1.63;;;6.80;99.90;;;;;;5027922;28;20553;-61
2022/12/07 04:24:28;;;;;;;1.83;1.73;;;6.80;99.90;;;;;;5009411;28;20203;-61
2022/12/07 04:26:55;;;;;;;1.87;1.60;;;6.80;99.90;;;;;;5028722;28;20364;-61
2022/12/07 04:29:23;;;;;;;2.10;1.90;;;6.80;99.90;;;;;;5028479;28;20496;-61
2022/12/07 04:31:51;;;;;;;2.17;1.97;;;6.80;99.90;;;;;;5031790;28;20193;-61
2022/12/07 04:34:19;;;;;;;2.50;1.87;;;6.80;99.90;;;;;;5028374;28;20190;-61
2022/12/07 04:36:48;;;;;;;1.67;1.57;;;6.80;99.90;;;;;;5010763;28;20221;-61
2022/12/07 04:39:20;;;;;;;1.33;1.23;;;6.90;99.90;;;;;;5011475;28;20190;-61
2022/12/07 04:41:48;;;;;;;2.00;1.60;;;6.90;99.90;;;;;;5025348;28;20236;-61
2022/12/07 04:44:16;;;;;;;1.50;1.40;;;6.90;99.90;;;;;;5026981;28;20230;-61
2022/12/07 04:46:43;;;;;;;2.00;1.30;;;6.90;99.90;;;;;;5010301;28;20269;-61
2022/12/07 04:49:11;;;;;;;2.63;1.80;;;6.90;99.90;;;;;;5026278;28;20306;-61
2022/12/07 04:51:38;;;;;;;1.70;1.60;;;6.90;99.90;;;;;;5028837;28;20202;-61
2022/12/07 04:54:07;;;;;;;2.10;1.90;;;6.90;99.90;;;;;;5009670;28;20297;-61
2022/12/07 04:56:35;;;;;;;1.80;1.70;;;6.90;99.90;;;;;;5027971;28;20214;-61
2022/12/07 04:59:03;;;;;;;1.83;1.73;;;6.90;99.90;;;;;;5025890;28;20191;-61
2022/12/07 05:01:31;;;;;;;1.40;1.30;;;6.90;99.90;;;;;;5028050;28;20218;-61
2022/12/07 05:03:58;;;;;;;2.17;1.63;;;6.90;99.90;;;;;;5026113;28;20717;-61
2022/12/07 05:06:25;;;;;;;1.50;1.40;;;6.80;99.90;;;;;;5031857;28;20277;-61
2022/12/07 05:08:53;;;;;;;1.50;1.40;;;6.80;99.90;;;;;;5025440;28;20224;-61
2022/12/07 05:11:39;;;;;;;1.80;1.60;;;6.80;99.90;;;;;;5028652;28;20204;-61
2022/12/07 05:14:09;;;;;;;1.77;1.67;;;6.80;99.90;;;;;;5027328;28;20610;-61
2022/12/07 05:16:37;;;;;;;1.50;1.40;;;6.80;99.90;;;;;;5027494;28;20226;-61
2022/12/07 05:19:05;;;;;;;1.53;1.43;;;6.80;99.90;;;;;;5028670;28;20198;-62
2022/12/07 05:21:32;;;;;;;1.73;1.20;;;6.80;99.90;;;;;;5028102;28;20558;-61
2022/12/07 05:23:59;;;;;;;1.70;1.60;;;6.80;99.90;;;;;;5025046;28;20277;-61
2022/12/07 05:26:29;;;;;;;1.60;1.50;;;6.90;99.90;;;;;;5031671;28;20253;-60
2022/12/07 05:28:57;;;;;;;1.80;1.70;;;6.90;99.90;;;;;;5029511;28;20265;-60
2022/12/07 05:31:25;;;;;;;2.00;1.60;;;6.90;99.90;;;;;;5031082;28;20194;-61
2022/12/07 05:33:52;;;;;;;1.30;1.20;;;6.90;99.90;;;;;;5028290;28;20208;-60
2022/12/07 05:36:19;;;;;;;1.30;1.20;;;6.90;99.90;;;;;;5031574;28;20226;-61
2022/12/07 05:38:46;;;;;;;1.40;1.30;;;6.90;99.90;;;;;;5027853;28;20253;-60
2022/12/07 05:43:58;;;;;;;1.20;1.20;;;6.90;99.90;;;;;;5026919;28;20570;-61
2022/12/07 05:46:26;;;;;;;1.40;1.30;;;6.90;99.90;;;;;;5029779;28;20667;-62
2022/12/07 05:48:53;;;;;;;1.60;1.50;;;6.90;99.90;;;;;;5033087;28;20203;-60
2022/12/07 05:51:20;;;;;;;1.40;1.33;;;6.90;99.90;;;;;;5013034;28;20229;-60
2022/12/07 05:53:47;;;;;;;1.57;1.30;;;6.90;99.90;;;;;;5011784;28;20206;-60
2022/12/07 05:56:14;;;;;;;1.40;1.30;;;6.90;99.90;;;;;;5025716;28;20215;-60
2022/12/07 06:01:27;;;;;;;1.07;1.07;;;6.80;99.90;;;;;;5029485;28;20198;-60
2022/12/07 06:03:54;;;;;;;1.40;1.30;;;6.80;99.90;;;;;;5010540;28;20288;-60
2022/12/07 06:06:21;;;;;;;1.70;1.60;;;6.90;99.90;;;;;;5031200;28;20252;-60
2022/12/07 06:08:48;;;;;;;1.83;1.53;;;6.90;99.90;;;;;;5029030;28;20201;-60
2022/12/07 06:13:59;;;;;;;1.20;1.17;;;6.90;99.90;;;;;;5029158;28;22676;-61
2022/12/07 06:16:28;;;;;;;1.67;1.57;;;6.90;99.90;;;;;;5031136;28;20218;-61
2022/12/07 06:18:55;;;;;;;1.70;1.40;;;6.90;99.90;;;;;;5011356;28;20918;-60
2022/12/07 06:21:22;;;;;;;1.40;1.30;;;6.90;99.90;;;;;;5031489;28;20245;-61
2022/12/07 06:23:49;;;;;;;1.43;1.30;;;6.90;99.90;;;;;;5027348;28;20234;-60
2022/12/07 06:26:17;;;;;;;1.30;1.20;;;6.90;99.90;;;;;;5030808;28;20708;-61
2022/12/07 06:28:44;;;;;;;1.40;1.30;;;6.90;99.90;;;;;;5029030;28;20214;-60
2022/12/07 06:31:11;;;;;;;1.10;1.10;;;6.90;99.90;;;;;;5031061;28;20224;-61
2022/12/07 06:33:39;;;;;;;0.97;0.97;;;6.90;99.90;;;;;;5028709;28;20253;-60
2022/12/07 06:36:07;;;;;;;1.23;1.10;;;6.90;99.90;;;;;;5029980;28;20211;-60
2022/12/07 06:38:34;;;;;;;1.10;1.10;;;6.90;99.90;;;;;;5025071;28;20273;-60
2022/12/07 06:41:01;;;;;;;1.07;0.90;;;6.90;99.90;;;;;;5029787;28;20650;-60
2022/12/07 06:43:28;;;;;;;1.13;1.00;;;6.90;99.90;;;;;;5029315;28;20673;-61
2022/12/07 06:45:56;;;;;;;0.80;0.80;;;6.90;99.90;;;;;;5029817;28;20273;-60
2022/12/07 06:48:23;;;;;;;0.90;0.90;;;6.90;99.90;;;;;;5029015;28;20206;-61
2022/12/07 06:50:51;;;;;;;0.80;0.80;;;6.80;99.90;;;;;;5029814;28;20218;-61
2022/12/07 06:53:18;;;;;;;0.60;0.60;;;6.80;99.90;;;;;;5026192;28;20561;-60
2022/12/07 06:55:45;;;;;;;0.80;0.80;;;6.80;99.90;;;;;;5030652;28;20201;-61
2022/12/07 06:58:12;;;;;;;0.97;0.80;;;6.90;99.90;;;;;;5028876;28;20626;-61
2022/12/07 07:00:40;;;;;;;1.03;1.03;;;6.90;99.90;;;;;;5030433;28;20233;-60
2022/12/07 07:03:07;;;;;;;0.90;0.90;;;6.90;99.90;;;;;;5028455;28;20296;-60
2022/12/07 07:05:34;;;;;;;0.90;0.90;;;6.90;99.90;;;;;;5030516;28;20202;-60
2022/12/07 07:08:03;;;;;;;0.73;0.73;;;6.90;99.90;;;;;;5028156;28;20187;-60
2022/12/07 07:10:30;;;;;;;0.80;0.80;;;6.90;99.90;;;;;;5029894;28;20229;-60
2022/12/07 07:12:57;;;;;;;1.57;1.47;;;6.90;99.90;;;;;;5028636;28;20301;-60
2022/12/07 07:15:24;;;;;;;1.20;1.00;;;6.90;99.90;;;;;;5029986;28;20665;-61
2022/12/07 07:17:52;;;;;;;1.20;1.10;;;6.90;99.90;;;;;;5029251;28;20217;-61
2022/12/07 07:20:19;;;;;;;1.53;1.43;;;6.80;99.90;;;;;;5027209;28;20285;-61
2022/12/07 07:22:46;;;;;;;2.63;1.20;;;6.80;99.90;;;;;;5027546;28;20738;-60
2022/12/07 07:25:15;;;;;;;1.23;1.17;;;6.80;99.90;;;;;;5039770;28;20203;-61
2022/12/07 07:27:42;;;;;;;1.13;1.07;;;6.80;99.90;;;;;;5009357;28;20271;-61
2022/12/07 07:30:11;;;;;;;0.90;0.90;;;6.90;99.90;;;;;;5028413;28;20233;-61
2022/12/07 07:32:38;;;;;;;1.40;1.30;;;6.90;99.90;;;;;;5028613;28;20258;-61
2022/12/07 07:35:05;;;;;;;1.40;1.30;;;6.90;99.90;;;;;;5029266;28;20332;-60
2022/12/07 07:37:33;;;;;;;1.30;1.20;;;6.90;99.90;;;;;;5030296;28;20241;-60
2022/12/07 07:40:00;;;;;;;1.10;1.10;;;6.90;99.90;;;;;;5029091;28;20203;-60
2022/12/07 07:42:28;;;;;;;1.50;1.40;;;6.90;99.90;;;;;;5010602;28;20202;-60
2022/12/07 07:44:55;;;;;;;1.50;1.40;;;6.90;99.90;;;;;;5028984;28;20728;-61
2022/12/07 07:47:22;;;;;;;1.50;1.40;;;6.90;99.90;;;;;;5028378;28;20219;-61
2022/12/07 07:49:49;;;;;;;1.33;1.23;;;6.90;99.90;;;;;;5028845;28;20260;-61
2022/12/07 07:52:16;;;;;;;1.47;1.37;;;6.90;99.90;;;;;;5030773;28;20202;-61
2022/12/07 07:54:43;;;;;;;1.67;1.57;;;6.90;99.90;;;;;;5024919;28;20544;-61
2022/12/07 07:57:10;;;;;;;2.40;1.60;;;6.90;99.90;;;;;;5010684;28;20217;-61
2022/12/07 07:59:38;;;;;;;1.53;1.43;;;6.90;99.90;;;;;;5025660;28;20233;-61
2022/12/07 08:02:06;;;;;;;1.70;1.60;;;6.90;99.90;;;;;;5020239;28;20222;-61
2022/12/07 08:04:33;;;;;;;1.73;1.37;;;6.90;99.90;;;;;;5027448;28;20222;-60
2022/12/07 08:07:00;;;;;;;3.67;2.10;;;6.90;99.90;;;;;;5028125;28;20683;-61
2022/12/07 08:09:27;;;;;;;2.00;1.80;;;7.00;99.90;;;;;;5024403;28;20237;-62
2022/12/07 08:11:54;;;;;;;2.00;1.80;;;7.00;99.90;;;;;;5009186;28;20195;-60
2022/12/07 08:14:21;;;;;;;2.47;1.83;;;7.00;99.90;;;;;;5026677;28;20565;-60
2022/12/07 08:16:50;;;;;;;1.90;1.80;;;7.10;99.90;;;;;;5024877;28;20539;-61
2022/12/07 08:19:17;;;;;;;2.33;1.90;;;7.10;99.90;;;;;;5025982;28;20437;-61
2022/12/07 08:21:44;;;;;;;2.03;1.90;;;7.10;99.90;;;;;;5009368;28;20236;-61
2022/12/07 08:24:11;;;;;;;2.63;2.00;;;7.20;99.90;;;;;;5025138;28;20571;-61
2022/12/07 08:26:38;;;;;;;2.50;1.90;;;7.20;99.90;;;;;;5024475;28;20278;-61
2022/12/07 08:29:05;;;;;;;2.80;2.10;;;7.30;99.90;;;;;;5025675;28;20630;-61
2022/12/07 08:31:32;;;;;;;3.27;2.50;;;7.30;99.90;;;;;;5024022;28;20601;-61
2022/12/07 08:34:00;;;;;;;3.07;2.70;;;7.30;99.90;;;;;;5022965;28;20225;-60
2022/12/07 08:36:27;;;;;;;4.47;2.70;;;7.30;99.90;;;;;;5026129;28;20234;-61
2022/12/07 08:38:54;;;;;;;3.50;3.13;;;7.30;99.90;;;;;;5024051;28;20597;-61
2022/12/07 08:41:21;;;;;;;3.90;2.83;;;7.30;99.90;;;;;;5024437;28;20210;-61
2022/12/07 08:43:48;;;;;;;4.77;2.47;;;7.20;99.90;;;;;;5026312;28;20195;-61
2022/12/07 08:46:20;;;;;;;3.93;3.13;;;7.20;99.90;;;;;;5008601;28;20198;-61
2022/12/07 08:48:52;;;;;;;3.80;2.63;;;7.20;99.90;;;;;;5027776;28;20198;-61
2022/12/07 08:51:23;;;;;;;2.20;2.10;;;7.20;99.90;;;;;;5026879;28;20218;-61
2022/12/07 08:53:51;;;;;;;2.63;2.43;;;7.20;99.90;;;;;;5024437;28;20191;-61
2022/12/07 08:56:20;;;;;;;3.17;2.87;;;7.20;99.90;;;;;;5008450;28;20205;-61
2022/12/07 08:58:47;;;;;;;3.60;2.97;;;7.20;99.90;;;;;;5022812;28;20195;-61
2022/12/07 09:01:14;;;;;;;3.63;2.70;;;7.20;99.90;;;;;;5012705;28;20194;-60
2022/12/07 09:03:41;;;;;;;3.47;2.80;;;7.20;99.90;;;;;;5026788;28;20625;-61
2022/12/07 09:06:09;;;;;;;8.20;4.67;;;7.20;99.90;;;;;;5029949;28;20191;-61
2022/12/07 09:08:46;;;;;;;5.53;3.57;;;7.10;99.90;;;;;;4997501;28;20218;-61
2022/12/07 09:11:13;;;;;;;3.93;2.90;;;7.20;99.90;;;;;;5028946;28;20194;-61
2022/12/07 09:13:40;;;;;;;3.80;2.43;;;7.20;99.90;;;;;;5029112;28;20288;-61
2022/12/07 09:16:07;;;;;;;2.57;2.37;;;7.20;99.90;;;;;;5031037;28;20214;-61
2022/12/07 09:18:35;;;;;;;2.33;2.13;;;7.20;99.90;;;;;;5029785;28;20580;-61
2022/12/07 09:21:02;;;;;;;2.20;1.80;;;7.10;99.90;;;;;;5012368;28;20252;-61
2022/12/07 09:23:29;;;;;;;2.20;2.00;;;7.20;99.90;;;;;;5026507;28;20284;-60
2022/12/07 09:26:00;;;;;;;3.03;2.00;;;7.20;99.90;;;;;;5027870;28;20233;-61
2022/12/07 09:28:27;;;;;;;2.20;2.03;;;7.10;99.90;;;;;;5028184;28;20197;-61
2022/12/07 09:30:54;;;;;;;1.60;1.50;;;7.20;99.90;;;;;;5029993;28;20272;-61
2022/12/07 09:33:21;;;;;;;1.70;1.60;;;7.20;99.90;;;;;;5027867;28;20276;-61
2022/12/07 09:35:49;;;;;;;1.70;1.60;;;7.20;99.90;;;;;;5028634;28;20199;-60
2022/12/07 09:38:17;;;;;;;2.10;1.80;;;7.30;99.90;;;;;;5027176;28;20700;-61
2022/12/07 09:40:45;;;;;;;1.90;1.80;;;7.30;99.90;;;;;;5030192;28;20217;-61
2022/12/07 09:43:17;;;;;;;2.07;1.70;;;7.30;99.90;;;;;;5027584;28;20214;-61
2022/12/07 09:45:46;;;;;;;2.10;1.90;;;7.30;99.90;;;;;;5029099;28;20202;-61
2022/12/07 09:48:19;;;;;;;2.43;2.20;;;7.30;99.90;;;;;;5028319;28;20561;-60
2022/12/07 09:50:47;;;;;;;3.93;2.40;;;7.30;99.90;;;;;;5029222;28;20257;-61
2022/12/07 09:53:20;;;;;;;3.37;2.60;;;7.30;99.90;;;;;;5024868;28;20222;-61
2022/12/07 09:55:47;;;;;;;3.77;3.00;;;7.20;99.90;;;;;;5028523;28;20268;-61
2022/12/07 09:58:21;;;;;;;2.93;2.63;;;7.20;99.90;;;;;;5027498;28;20214;-61
2022/12/07 10:00:49;;;;;;;2.60;2.13;;;7.20;99.90;;;;;;5029350;28;20194;-61
2022/12/07 10:03:16;;;;;;;2.57;2.27;;;7.20;99.90;;;;;;5027433;28;20222;-61
2022/12/07 10:05:46;;;;;;;2.73;2.50;;;7.20;99.90;;;;;;5027064;28;20673;-61
2022/12/07 10:08:15;;;;;;;2.83;2.60;;;7.20;99.90;;;;;;5027633;28;20553;-61
2022/12/07 10:10:42;;;;;;;2.13;2.00;;;7.20;99.90;;;;;;5028071;28;20202;-60
2022/12/07 10:13:11;;;;;;;2.40;2.20;;;7.20;99.90;;;;;;5011567;28;20225;-61
2022/12/07 10:15:52;;;;;;;2.07;1.97;;;7.10;99.90;;;;;;5027922;28;20202;-62
2022/12/07 10:18:38;;;;;;;2.60;2.40;;;7.10;99.90;;;;;;5025591;28;20239;-62
2022/12/07 10:21:17;;;;;;;2.83;2.47;;;7.10;99.90;;;;;;5029489;28;20191;-61
2022/12/07 10:24:01;;;;;;;2.60;2.40;;;7.10;99.90;;;;;;5026596;28;20205;-61
2022/12/07 10:26:31;;;;;;;3.40;2.90;;;7.10;99.90;;;;;;5030169;28;20198;-62
2022/12/07 10:29:01;;;;;;;3.43;2.73;;;7.10;99.90;;;;;;5028335;28;20542;-62
2022/12/07 10:31:30;;;;;;;2.60;2.40;;;7.10;99.90;;;;;;5028421;28;20226;-61
2022/12/07 10:33:58;;;;;;;3.00;2.70;;;7.00;99.90;;;;;;5028134;28;20191;-61
2022/12/07 10:36:28;;;;;;;3.23;2.70;;;7.00;99.90;;;;;;5028992;28;20194;-62
2022/12/07 10:39:01;;;;;;;3.20;2.47;;;7.00;99.90;;;;;;5026965;28;20214;-62
2022/12/07 10:41:28;;;;;;;2.60;2.40;;;7.00;99.90;;;;;;5036906;28;20668;-62
2022/12/07 10:43:57;;;;;;;5.23;3.37;;;7.00;99.90;;;;;;5033503;28;20300;-62
2022/12/07 10:47:06;;;;;;;3.10;2.47;;;7.00;99.90;;;;;;5028894;28;20205;-62
2022/12/07 10:50:18;;;;;;;2.80;2.20;;;7.00;99.90;;;;;;5026053;28;20658;-62
2022/12/07 10:53:13;;;;;;;3.43;3.13;;;7.00;99.90;;;;;;5026566;28;20194;-62
2022/12/07 10:55:55;;;;;;;3.50;2.80;;;7.00;99.90;;;;;;5026895;28;21199;-62
2022/12/07 10:58:53;;;;;;;2.70;2.50;;;7.00;99.90;;;;;;5031594;28;20245;-62
2022/12/07 11:01:25;;;;;;;2.53;2.23;;;7.00;99.90;;;;;;5026111;28;20272;-62
2022/12/07 11:04:17;;;;;;;5.63;2.83;;;7.10;99.90;;;;;;5026451;28;20737;-62
2022/12/07 11:06:52;;;;;;;2.77;2.50;;;7.00;99.90;;;;;;5028045;28;20726;-62
2022/12/07 11:10:00;;;;;;;2.20;2.00;;;7.00;99.90;;;;;;5024072;28;20614;-62
2022/12/07 11:12:39;;;;;;;2.37;2.17;;;7.00;99.90;;;;;;5034279;28;20210;-62
2022/12/07 11:15:16;;;;;;;2.53;2.33;;;7.00;99.90;;;;;;5028122;28;20248;-62
2022/12/07 11:17:50;;;;;;;2.40;2.20;;;7.00;99.90;;;;;;5027638;28;20206;-62
2022/12/07 11:20:36;;;;;;;2.47;2.27;;;7.00;99.90;;;;;;5027631;28;20268;-62
2022/12/07 11:23:12;;;;;;;7.60;2.70;;;7.10;99.90;;;;;;5025687;28;20193;-61
2022/12/07 11:25:50;;;;;;;3.03;2.50;;;7.00;99.90;;;;;;5028484;28;20557;-62
2022/12/07 11:28:29;;;;;;;2.30;2.10;;;7.00;99.90;;;;;;5030333;28;20214;-62
2022/12/07 11:31:07;;;;;;;2.23;1.80;;;7.00;99.90;;;;;;5011802;28;20629;-62
2022/12/07 11:33:42;;;;;;;5.57;2.67;;;6.90;99.90;;;;;;5028135;28;20218;-62
2022/12/07 11:36:31;;;;;;;2.77;2.50;;;7.00;99.90;;;;;;5028359;28;20264;-62
2022/12/07 11:39:01;;;;;;;3.10;2.20;;;6.90;99.90;;;;;;5025495;28;20194;-62
2022/12/07 11:41:32;;;;;;;2.83;2.43;;;7.00;99.90;;;;;;5029554;28;20554;-62
2022/12/07 11:44:06;;;;;;;2.90;2.60;;;7.00;99.90;;;;;;5033377;28;20206;-63
2022/12/07 11:46:46;;;;;;;2.63;2.10;;;7.00;99.90;;;;;;5028370;28;20191;-61
2022/12/07 11:49:20;;;;;;;3.67;2.80;;;6.90;99.90;;;;;;5027023;28;20295;-61
2022/12/07 11:51:50;;;;;;;2.77;2.53;;;7.10;99.90;;;;;;5029217;28;20213;-62
2022/12/07 11:54:20;;;;;;;2.40;2.20;;;7.00;99.90;;;;;;5026640;28;20272;-61
2022/12/07 11:56:51;;;;;;;2.43;2.10;;;7.00;99.90;;;;;;5031992;28;20206;-61
2022/12/07 11:59:24;;;;;;;2.73;2.53;;;7.00;99.90;;;;;;5010473;28;20318;-62
2022/12/07 12:01:55;;;;;;;3.10;2.83;;;7.00;99.90;;;;;;5028179;28;20191;-62
2022/12/07 12:04:35;;;;;;;2.73;2.53;;;7.00;99.90;;;;;;5026941;28;20625;-62
2022/12/07 12:07:06;;;;;;;2.87;2.67;;;6.90;99.90;;;;;;5028052;28;20244;-61
2022/12/07 12:09:40;;;;;;;2.50;2.30;;;6.90;99.90;;;;;;5027368;28;20202;-62
2022/12/07 12:12:39;;;;;;;2.50;2.30;;;6.90;99.90;;;;;;5007612;28;20198;-62
2022/12/07 12:15:23;;;;;;;2.40;2.20;;;6.90;99.90;;;;;;5033404;28;20295;-62
2022/12/07 12:18:17;;;;;;;2.73;2.53;;;6.90;99.90;;;;;;5028402;28;20249;-62
2022/12/07 12:20:48;;;;;;;2.30;2.10;;;6.90;99.90;;;;;;5025144;28;20740;-61
2022/12/07 12:23:20;;;;;;;2.83;2.53;;;6.90;99.90;;;;;;5005171;28;20202;-62
2022/12/07 12:25:49;;;;;;;2.93;2.70;;;6.90;99.90;;;;;;5028372;28;20195;-62
2022/12/07 12:28:28;;;;;;;2.60;2.40;;;6.90;99.90;;;;;;5027738;28;20597;-62
2022/12/07 12:31:17;;;;;;;3.10;2.83;;;6.90;99.90;;;;;;5036010;28;20240;-62
2022/12/07 12:33:46;;;;;;;3.27;2.30;;;6.90;99.90;;;;;;5022123;28;20261;-62
2022/12/07 12:36:24;;;;;;;3.40;2.57;;;6.90;99.90;;;;;;5026945;28;20277;-62
2022/12/07 12:39:10;;;;;;;2.80;2.60;;;6.90;99.90;;;;;;5024460;28;20202;-62
2022/12/07 12:42:07;;;;;;;2.67;2.47;;;6.90;99.90;;;;;;5011231;28;20205;-62
2022/12/07 12:44:42;;;;;;;3.00;2.70;;;6.90;99.90;;;;;;5029668;28;20197;-62
2022/12/07 12:47:44;;;;;;;3.53;2.67;;;6.90;99.90;;;;;;5029012;28;20190;-62
2022/12/07 12:50:19;;;;;;;3.10;2.80;;;6.90;99.90;;;;;;5028735;28;20255;-62
2022/12/07 12:52:57;;;;;;;3.57;3.00;;;6.90;99.90;;;;;;5024710;28;20193;-61
2022/12/07 12:55:57;;;;;;;13.20;3.63;;;6.90;99.90;;;;;;5028857;28;20210;-62
2022/12/07 12:58:33;;;;;;;5.80;3.20;;;6.90;99.90;;;;;;5004185;28;20217;-62
2022/12/07 13:01:38;;;;;;;3.23;3.03;;;6.80;99.90;;;;;;5008650;28;20345;-63
2022/12/07 13:04:27;;;;;;;4.13;3.00;;;6.80;99.90;;;;;;5025486;28;20416;-61
2022/12/07 13:06:55;;;;;;;4.83;3.73;;;6.80;99.90;;;;;;5027077;28;20190;-62
2022/12/07 13:09:25;;;;;;;5.30;3.40;;;6.80;99.90;;;;;;5026543;28;20194;-62
2022/12/07 13:12:03;;;;;;;4.37;3.40;;;6.70;99.90;;;;;;5025076;28;20250;-62
2022/12/07 13:14:56;;;;;;;3.73;3.30;;;6.80;99.90;;;;;;5028359;28;20198;-63
2022/12/07 13:18:00;;;;;;;3.80;3.40;;;6.80;99.90;;;;;;5039225;28;20202;-63
2022/12/07 13:20:54;;;;;;;4.23;3.20;;;6.70;99.90;;;;;;5009782;28;20202;-63
2022/12/07 13:23:25;;;;;;;4.17;2.90;;;6.80;99.90;;;;;;5023274;28;20193;-62
2022/12/07 13:25:59;;;;;;;4.23;3.13;;;6.80;99.90;;;;;;5029127;28;20200;-62